Time;durP1;ratioP1;P1;durP2;ratioP2;P2;SDS_P1;SDS_P2;PMS_P1;PMS_P2;Temp;Humidity;BMP_temperature;BMP_pressure;BME280_temperature;BME280_humidity;BME280_pressure;Samples;Min_cycle;Max_cycle;Signal;HPM_P1;HPM_P2
2022/04/07 04:31:11;;;;;;;;;1.75;1.00;;;;;11.98;77.09;99108.91;1432283;25;46178;-75
2022/04/07 04:33:36;;;;;;;;;4.00;2.00;;;;;11.94;77.95;99095.84;5072567;28;45369;-73
2022/04/07 04:36:02;;;;;;;;;4.00;2.00;;;;;11.91;77.82;99091.53;5057760;28;45274;-74
2022/04/07 04:38:27;;;;;;;;;4.00;1.25;;;;;11.89;77.69;99096.22;5057327;28;45801;-75
2022/04/07 04:40:52;;;;;;;;;1.00;1.00;;;;;11.86;77.26;99096.44;5057529;28;45566;-74
2022/04/07 04:43:18;;;;;;;;;3.75;2.00;;;;;11.86;77.38;99091.06;5057895;28;46214;-74
2022/04/07 04:45:43;;;;;;;;;4.00;1.00;;;;;11.95;77.29;99143.19;5039691;28;45891;-74
2022/04/07 04:48:08;;;;;;;;;4.00;2.00;;;;;11.85;77.76;99091.19;5057445;28;45259;-75
2022/04/07 04:50:35;;;;;;;;;1.25;1.00;;;;;11.97;77.54;99119.78;5057566;28;45229;-74
2022/04/07 04:53:00;;;;;;;;;4.50;2.75;;;;;11.97;77.54;99077.66;5057034;28;45455;-73
2022/04/07 04:55:25;;;;;;;;;3.75;1.75;;;;;11.96;77.58;99096.56;5057129;28;45320;-75
2022/04/07 04:57:51;;;;;;;;;2.25;1.00;;;;;11.88;77.24;99062.28;5057329;28;45634;-75
2022/04/07 05:00:16;;;;;;;;;3.00;1.75;;;;;12.00;77.01;99079.22;5056791;28;45338;-75
2022/04/07 05:02:42;;;;;;;;;2.50;2.00;;;;;12.01;77.17;99075.56;5056601;28;46101;-74
2022/04/07 05:05:08;;;;;;;;;4.50;1.50;;;;;11.95;76.74;99068.88;5057147;28;45347;-75
2022/04/07 05:07:34;;;;;;;;;1.75;1.75;;;;;12.04;76.69;99073.53;5056718;28;45399;-75
2022/04/07 05:09:59;;;;;;;;;1.25;1.25;;;;;12.05;77.01;99069.84;5057097;28;45480;-77
2022/04/07 05:12:26;;;;;;;;;1.00;1.00;;;;;12.08;76.80;99069.59;5060038;28;46009;-73
2022/04/07 05:14:52;;;;;;;;;1.00;0.00;;;;;12.02;76.64;99059.34;5057200;28;45502;-75
2022/04/07 05:17:21;;;;;;;;;5.75;1.00;;;;;12.13;76.68;99045.06;5056497;28;45507;-75
2022/04/07 05:19:46;;;;;;;;;1.75;1.50;;;;;12.01;76.69;99027.22;5056972;28;45272;-77
2022/04/07 05:22:12;;;;;;;;;1.75;1.00;;;;;12.04;76.41;99032.38;5053769;28;46084;-78
2022/04/07 05:24:37;;;;;;;;;2.50;0.00;;;;;12.26;76.11;99043.09;5047545;28;45426;-77
2022/04/07 05:27:03;;;;;;;;;2.00;1.00;;;;;12.29;76.04;99037.50;5038625;28;45231;-77
2022/04/07 05:29:29;;;;;;;;;1.00;1.00;;;;;12.20;75.53;99032.00;5056926;28;45389;-74
2022/04/07 05:31:54;;;;;;;;;0.50;0.50;;;;;12.28;75.09;99025.03;5066241;28;45460;-76
2022/04/07 05:34:19;;;;;;;;;1.00;1.00;;;;;12.39;74.42;99019.66;5065151;28;45499;-74
2022/04/07 05:36:45;;;;;;;;;1.25;0.25;;;;;12.36;74.14;99022.59;5056266;28;45466;-76
2022/04/07 05:39:10;;;;;;;;;2.25;1.00;;;;;12.38;73.75;99011.72;5056533;28;45295;-76
2022/04/07 05:41:35;;;;;;;;;4.75;1.00;;;;;12.47;73.41;99003.78;5055434;28;46167;-75
2022/04/07 05:44:01;;;;;;;;;1.00;1.00;;;;;12.37;73.11;99010.88;5054527;28;45401;-78
2022/04/07 05:46:26;;;;;;;;;0.25;0.25;;;;;12.41;73.35;99014.19;5056359;28;45370;-78
2022/04/07 05:48:52;;;;;;;;;0.50;0.00;;;;;12.44;74.15;99004.00;5056528;28;45395;-71
2022/04/07 05:51:17;;;;;;;;;0.50;0.00;;;;;12.41;74.18;99024.94;5056117;28;45453;-75
2022/04/07 05:53:42;;;;;;;;;1.00;1.00;;;;;12.39;73.91;98997.31;5056484;28;45406;-77
2022/04/07 05:56:08;;;;;;;;;1.00;1.00;;;;;12.51;73.98;99009.75;5056304;28;45439;-77
2022/04/07 05:58:33;;;;;;;;;2.75;1.75;;;;;12.56;73.43;98999.47;5056294;28;45494;-75
2022/04/07 06:00:59;;;;;;;;;2.00;1.00;;;;;12.57;73.36;98998.50;5055824;28;45355;-76
2022/04/07 06:03:24;;;;;;;;;0.00;0.00;;;;;12.57;73.00;99000.34;5055664;28;45331;-77
2022/04/07 06:05:52;;;;;;;;;3.00;0.50;;;;;12.49;73.07;99022.47;5056610;28;45520;-77
2022/04/07 06:08:19;;;;;;;;;1.00;1.00;;;;;12.45;73.18;98999.50;5045553;28;45232;-78
2022/04/07 06:10:44;;;;;;;;;4.00;1.50;;;;;12.41;72.72;98979.25;5048414;28;46049;-76
2022/04/07 06:13:11;;;;;;;;;2.25;1.50;;;;;12.32;72.50;98948.59;5045145;28;45344;-77
2022/04/07 06:15:37;;;;;;;;;2.25;1.25;;;;;12.47;72.27;98989.47;5050987;28;45431;-77
2022/04/07 06:18:02;;;;;;;;;2.25;0.00;;;;;12.61;72.22;99028.66;5044440;28;45773;-78
2022/04/07 06:20:28;;;;;;;;;1.00;1.00;;;;;12.60;72.31;99009.00;5054102;28;45497;-78
2022/04/07 06:22:53;;;;;;;;;1.75;1.00;;;;;12.58;71.83;98994.84;5046421;28;45480;-76
2022/04/07 06:25:19;;;;;;;;;4.25;2.00;;;;;12.51;71.93;98989.09;5048969;28;45423;-76
2022/04/07 06:27:45;;;;;;;;;3.50;0.25;;;;;12.56;72.21;99006.69;5042294;28;45362;-76
2022/04/07 06:30:16;;;;;;;;;4.00;0.50;;;;;12.59;72.39;98976.88;5036835;28;46106;-74
2022/04/07 06:32:43;;;;;;;;;1.25;1.25;;;;;12.57;72.27;98986.91;5071748;28;45359;-77
2022/04/07 06:35:11;;;;;;;;;3.00;2.00;;;;;12.65;72.57;98979.06;5057527;28;45220;-76
2022/04/07 06:38:05;;;;;;;;;2.50;1.00;;;;;12.43;72.34;98953.06;5054880;28;45424;-76
2022/04/07 06:40:31;;;;;;;;;5.00;1.75;;;;;12.60;72.75;98995.53;5035115;28;45556;-76
2022/04/07 06:42:58;;;;;;;;;3.25;1.00;;;;;12.42;73.76;98972.84;5054443;28;45449;-76
2022/04/07 06:45:28;;;;;;;;;4.50;1.00;;;;;12.58;73.48;98975.16;5054605;28;45562;-76
2022/04/07 06:47:55;;;;;;;;;2.00;2.00;;;;;12.42;74.02;98959.41;5054550;28;45425;-76
2022/04/07 06:50:23;;;;;;;;;0.75;0.50;;;;;12.41;74.29;99009.66;5045740;28;45997;-77
2022/04/07 06:52:49;;;;;;;;;2.75;1.00;;;;;12.35;74.47;98953.69;5054127;28;45939;-76
2022/04/07 06:55:16;;;;;;;;;2.50;1.00;;;;;12.36;74.35;98955.41;5054617;28;45474;-76
2022/04/07 06:57:58;;;;;;;;;1.00;1.00;;;;;12.49;74.78;98945.38;5054974;28;45505;-76
2022/04/07 07:00:31;;;;;;;;;0.00;0.00;;;;;12.50;74.57;98955.13;5051173;28;45478;-77
2022/04/07 07:02:59;;;;;;;;;0.25;0.25;;;;;12.56;74.64;98964.53;5054345;28;45284;-77
2022/04/07 07:05:26;;;;;;;;;2.50;1.25;;;;;12.59;74.66;98974.19;5050050;28;45423;-77
2022/04/07 07:07:52;;;;;;;;;1.50;0.00;;;;;12.53;74.77;98954.03;5054811;28;45431;-77
2022/04/07 07:10:20;;;;;;;;;0.00;0.00;;;;;12.63;74.79;98976.50;5050688;28;45440;-75
2022/04/07 07:12:47;;;;;;;;;1.00;0.00;;;;;12.55;74.78;98964.66;5055055;28;45431;-76
2022/04/07 07:15:12;;;;;;;;;2.25;0.50;;;;;12.57;74.64;98971.63;5054343;28;45343;-76
2022/04/07 07:17:38;;;;;;;;;1.00;1.00;;;;;12.63;74.61;98954.13;5054400;28;45276;-77
2022/04/07 07:20:04;;;;;;;;;0.25;0.00;;;;;12.51;74.77;98954.16;5053801;28;45989;-77
2022/04/07 07:22:30;;;;;;;;;0.50;0.50;;;;;12.57;75.00;98955.50;5031354;28;45968;-76
2022/04/07 07:24:56;;;;;;;;;0.00;0.00;;;;;12.60;74.94;98957.06;5046816;28;45500;-77
2022/04/07 07:27:21;;;;;;;;;0.00;0.00;;;;;12.59;75.33;98958.88;5041477;28;45291;-77
2022/04/07 07:29:46;;;;;;;;;0.00;0.00;;;;;12.47;76.18;98941.97;5042237;28;45419;-76
2022/04/07 07:32:12;;;;;;;;;0.00;0.00;;;;;12.63;76.48;98952.28;5047327;28;45410;-77
2022/04/07 07:34:38;;;;;;;;;1.00;0.00;;;;;12.60;76.14;98955.22;5057581;28;45385;-76
2022/04/07 07:37:04;;;;;;;;;1.00;0.00;;;;;12.59;76.56;98937.38;5052927;28;45567;-76
2022/04/07 07:39:30;;;;;;;;;0.00;0.00;;;;;12.55;75.73;98901.00;5045108;28;45327;-76
2022/04/07 07:41:55;;;;;;;;;0.00;0.00;;;;;12.66;75.56;98938.59;5022701;28;45331;-75
2022/04/07 07:44:21;;;;;;;;;0.25;0.25;;;;;12.78;75.61;98925.97;5028628;28;45804;-78
2022/04/07 07:46:46;;;;;;;;;2.50;0.50;;;;;12.90;75.28;98938.38;5052866;28;45749;-77
2022/04/07 07:49:11;;;;;;;;;0.00;0.00;;;;;12.85;75.12;98906.47;5052731;28;45308;-76
2022/04/07 07:51:37;;;;;;;;;1.00;0.00;;;;;13.05;74.37;98929.00;5053186;28;45328;-76
2022/04/07 07:54:04;;;;;;;;;0.00;0.00;;;;;12.96;74.84;98963.91;5052771;28;46869;-73
2022/04/07 07:56:29;;;;;;;;;0.00;0.00;;;;;12.94;76.01;98902.16;5053222;28;45586;-75
2022/04/07 07:58:54;;;;;;;;;4.00;0.50;;;;;13.01;76.33;98937.50;5052757;28;45514;-76
2022/04/07 08:01:20;;;;;;;;;1.50;0.00;;;;;13.01;76.15;98926.72;5046223;28;45474;-76
2022/04/07 08:03:45;;;;;;;;;0.00;0.00;;;;;13.09;75.91;98925.09;5034258;28;45426;-75
2022/04/07 08:06:11;;;;;;;;;0.00;0.00;;;;;13.19;75.57;98919.78;5051335;28;45252;-77
2022/04/07 08:08:36;;;;;;;;;1.00;0.00;;;;;13.11;74.96;98946.47;5052348;28;45510;-76
2022/04/07 08:11:01;;;;;;;;;0.00;0.00;;;;;13.04;75.69;98939.91;5039468;28;45312;-76
2022/04/07 08:13:27;;;;;;;;;0.00;0.00;;;;;12.97;76.57;98927.97;5053217;28;45448;-75
2022/04/07 08:15:52;;;;;;;;;0.00;0.00;;;;;13.07;76.41;98913.59;5052260;28;45830;-77
2022/04/07 08:18:18;;;;;;;;;1.00;0.00;;;;;13.00;76.41;98917.81;5052404;28;45359;-76
2022/04/07 08:20:43;;;;;;;;;0.00;0.00;;;;;13.15;75.64;98929.97;5041920;28;45383;-76
2022/04/07 08:23:09;;;;;;;;;0.00;0.00;;;;;13.21;75.54;98913.31;5041397;28;45915;-75
2022/04/07 08:25:34;;;;;;;;;0.00;0.00;;;;;13.30;74.30;98895.50;5046952;28;45491;-77
2022/04/07 08:28:00;;;;;;;;;0.00;0.00;;;;;13.47;74.19;98902.13;5044004;28;46215;-77
2022/04/07 08:30:25;;;;;;;;;0.00;0.00;;;;;13.58;73.59;98900.22;5051981;28;45486;-76
2022/04/07 08:32:50;;;;;;;;;1.00;0.00;;;;;13.62;72.90;98907.00;5070080;28;45406;-77
2022/04/07 08:35:16;;;;;;;;;0.00;0.00;;;;;13.79;72.40;98899.28;5047811;28;45354;-77
2022/04/07 08:37:41;;;;;;;;;0.00;0.00;;;;;13.79;72.47;98907.38;5030642;28;46528;-75
2022/04/07 08:40:07;;;;;;;;;0.00;0.00;;;;;13.87;72.23;98916.47;5047498;28;45379;-77
2022/04/07 08:42:34;;;;;;;;;0.50;0.00;;;;;13.93;71.65;98877.38;5052337;28;45414;-77
2022/04/07 08:44:59;;;;;;;;;0.00;0.00;;;;;14.10;71.48;98910.91;5051663;28;45591;-77
2022/04/07 08:47:24;;;;;;;;;0.00;0.00;;;;;14.17;71.22;98907.53;5051907;28;45483;-77
2022/04/07 08:49:50;;;;;;;;;0.00;0.00;;;;;14.11;70.43;98894.59;5050591;28;45359;-77
2022/04/07 08:52:16;;;;;;;;;0.00;0.00;;;;;14.20;70.06;98898.31;5051595;28;45387;-76
2022/04/07 08:54:45;;;;;;;;;0.00;0.00;;;;;14.29;69.93;98905.56;5051427;28;45436;-75
2022/04/07 08:57:10;;;;;;;;;0.00;0.00;;;;;14.38;69.86;98897.50;5052025;28;45535;-77
2022/04/07 08:59:36;;;;;;;;;0.00;0.00;;;;;14.40;69.48;98908.16;5047679;28;45577;-78
2022/04/07 09:02:03;;;;;;;;;0.00;0.00;;;;;14.53;69.42;98919.56;5025927;28;45352;-75
2022/04/07 09:04:37;;;;;;;;;0.00;0.00;;;;;14.56;68.75;98919.25;5051172;28;45458;-75
2022/04/07 09:07:03;;;;;;;;;1.00;0.00;;;;;14.65;68.01;98899.53;5051331;28;46102;-75
2022/04/07 09:09:31;;;;;;;;;0.75;0.00;;;;;14.72;68.25;98903.38;5051217;28;45402;-76
2022/04/07 09:11:57;;;;;;;;;0.00;0.00;;;;;14.86;67.98;98893.16;5030360;28;45481;-76
2022/04/07 09:14:23;;;;;;;;;0.75;0.00;;;;;14.77;67.60;98894.88;5041481;28;45449;-77
2022/04/07 09:16:57;;;;;;;;;0.75;0.00;;;;;14.82;67.82;98906.06;5054175;28;45378;-75
2022/04/07 09:19:22;;;;;;;;;0.00;0.00;;;;;14.94;68.08;98920.28;5056932;28;45505;-76
2022/04/07 09:22:03;;;;;;;;;0.00;0.00;;;;;14.96;68.06;98905.66;5056772;28;45573;-77
2022/04/07 09:24:29;;;;;;;;;0.00;0.00;;;;;14.95;68.43;98901.25;5046359;28;45535;-75
2022/04/07 09:26:54;;;;;;;;;0.00;0.00;;;;;14.96;68.21;98921.00;5044092;28;45512;-77
2022/04/07 09:29:19;;;;;;;;;0.00;0.00;;;;;15.05;67.52;98907.50;5056863;28;45331;-78
2022/04/07 09:31:53;;;;;;;;;2.00;0.00;;;;;15.04;67.81;98913.91;5063310;28;45462;-78
2022/04/07 09:34:39;;;;;;;;;0.00;0.00;;;;;15.08;67.68;98909.91;5065828;28;45352;-76
2022/04/07 09:37:08;;;;;;;;;0.00;0.00;;;;;14.89;67.28;98880.22;5056294;28;46298;-77
2022/04/07 09:39:36;;;;;;;;;0.00;0.00;;;;;15.21;66.64;98916.88;5056157;28;45577;-76
2022/04/07 09:42:25;;;;;;;;;0.00;0.00;;;;;15.24;66.28;98925.50;5056361;28;45427;-76
2022/04/07 09:44:53;;;;;;;;;0.00;0.00;;;;;15.21;65.90;98903.38;5056000;28;45403;-75
2022/04/07 09:47:20;;;;;;;;;0.00;0.00;;;;;15.32;66.41;98911.28;5056331;28;45394;-77
2022/04/07 09:49:47;;;;;;;;;0.00;0.00;;;;;15.33;65.62;98921.94;5055574;28;45355;-77
2022/04/07 09:52:14;;;;;;;;;0.00;0.00;;;;;15.32;65.86;98933.72;5055470;28;45464;-76
2022/04/07 09:54:43;;;;;;;;;0.00;0.00;;;;;15.33;65.05;98935.44;5055897;28;45387;-78
2022/04/07 09:57:12;;;;;;;;;0.50;0.00;;;;;15.30;65.26;98938.44;5056193;28;45472;-77
2022/04/07 09:59:39;;;;;;;;;0.00;0.00;;;;;15.38;65.65;98946.69;5055766;28;45359;-77
2022/04/07 10:02:06;;;;;;;;;0.00;0.00;;;;;15.37;65.03;98931.47;5056525;28;45375;-76
2022/04/07 10:04:34;;;;;;;;;0.00;0.00;;;;;15.54;65.49;98935.31;5055925;28;45597;-73
2022/04/07 10:07:01;;;;;;;;;0.00;0.00;;;;;15.54;64.09;98961.47;5056943;28;45365;-77
2022/04/07 10:09:28;;;;;;;;;3.00;0.00;;;;;15.55;64.76;98938.84;5056808;28;45187;-78
2022/04/07 10:11:54;;;;;;;;;1.00;0.00;;;;;15.58;65.45;98936.69;5056246;28;45479;-78
2022/04/07 10:14:21;;;;;;;;;1.00;0.00;;;;;15.55;66.67;98947.81;5055043;28;45571;-76
2022/04/07 10:16:47;;;;;;;;;0.75;0.00;;;;;15.18;72.53;98949.53;5054842;28;45478;-80
2022/04/07 10:19:20;;;;;;;;;3.00;0.00;;;;;14.91;78.21;99036.56;5054645;28;45487;-76
2022/04/07 10:22:15;;;;;;;;;1.50;0.00;;;;;14.44;76.49;99038.16;5041683;28;45392;-74
2022/04/07 10:24:47;;;;;;;;;0.00;0.00;;;;;14.32;75.46;99005.88;5046026;28;45394;-76
2022/04/07 10:27:14;;;;;;;;;0.00;0.00;;;;;14.37;74.38;99030.56;5066466;28;47134;-80
2022/04/07 10:29:40;;;;;;;;;0.00;0.00;;;;;14.46;75.11;99033.50;5054725;28;45541;-78
2022/04/07 10:32:11;;;;;;;;;0.25;0.00;;;;;14.46;74.60;99053.19;5066750;28;45430;-77
2022/04/07 10:34:52;;;;;;;;;0.00;0.00;;;;;14.30;73.96;99048.28;5062869;28;45391;-77
2022/04/07 10:37:29;;;;;;;;;0.00;0.00;;;;;14.38;73.29;99045.78;5055691;28;45522;-73
2022/04/07 10:39:54;;;;;;;;;1.00;0.00;;;;;14.45;72.75;99029.09;5055233;28;45464;-73
2022/04/07 10:43:03;;;;;;;;;0.00;0.00;;;;;14.55;71.41;99041.59;5055252;28;45296;-78
2022/04/07 10:45:33;;;;;;;;;0.00;0.00;;;;;14.65;68.99;99041.63;5054653;28;45367;-77
2022/04/07 10:48:18;;;;;;;;;0.00;0.00;;;;;14.88;68.15;99083.59;5054685;28;46009;-77
2022/04/07 10:50:51;;;;;;;;;0.00;0.00;;;;;14.85;66.01;99072.22;5036942;28;45420;-78
2022/04/07 10:53:19;;;;;;;;;0.00;0.00;;;;;15.01;65.23;99045.56;5056785;28;45411;-77
2022/04/07 10:55:54;;;;;;;;;1.00;0.00;;;;;15.16;63.85;99076.53;5056280;28;45395;-78
2022/04/07 10:58:20;;;;;;;;;0.00;0.00;;;;;15.15;63.19;99070.28;5054686;28;46608;-78
2022/04/07 11:00:46;;;;;;;;;0.00;0.00;;;;;15.21;63.19;99076.13;5054352;28;45493;-77
2022/04/07 11:03:15;;;;;;;;;1.00;0.00;;;;;15.25;63.85;99073.00;5055305;28;45382;-77
2022/04/07 11:05:54;;;;;;;;;0.00;0.00;;;;;15.42;63.29;99066.03;5055062;28;45493;-79
2022/04/07 11:08:22;;;;;;;;;0.00;0.00;;;;;15.43;61.68;99071.31;5058346;28;45462;-78
2022/04/07 11:10:48;;;;;;;;;0.00;0.00;;;;;15.32;61.12;99071.44;5061237;28;45350;-78
2022/04/07 11:13:14;;;;;;;;;0.00;0.00;;;;;15.48;60.57;99079.81;5069009;28;45190;-77
2022/04/07 11:15:42;;;;;;;;;0.00;0.00;;;;;15.60;60.60;99090.53;5065850;28;45753;-74
2022/04/07 11:18:20;;;;;;;;;0.00;0.00;;;;;15.55;59.36;99100.91;5061145;28;45468;-75
2022/04/07 11:21:01;;;;;;;;;0.00;0.00;;;;;15.64;59.63;99116.28;5062793;28;45436;-74
2022/04/07 11:23:48;;;;;;;;;0.00;0.00;;;;;15.72;59.15;99098.38;5031157;28;45224;-73
2022/04/07 11:26:26;;;;;;;;;0.00;0.00;;;;;15.88;58.66;99114.00;5058840;28;45381;-74
2022/04/07 11:29:06;;;;;;;;;0.00;0.00;;;;;15.76;58.28;99115.97;5055892;28;45479;-75
2022/04/07 11:31:48;;;;;;;;;1.75;1.75;;;;;15.73;58.55;99116.28;5059581;28;45474;-75
2022/04/07 11:34:35;;;;;;;;;0.75;0.00;;;;;15.87;57.96;99107.72;5064160;28;45488;-76
2022/04/07 11:37:06;;;;;;;;;0.00;0.00;;;;;15.91;56.81;99120.97;5035793;28;45425;-73
2022/04/07 11:39:33;;;;;;;;;1.00;0.00;;;;;15.85;57.08;99117.81;5055801;28;46195;-76
2022/04/07 11:42:00;;;;;;;;;0.00;0.00;;;;;15.95;56.49;99125.06;5054628;28;45399;-74
2022/04/07 11:44:26;;;;;;;;;0.00;0.00;;;;;15.93;56.26;99136.03;5054386;28;45364;-75
2022/04/07 11:46:54;;;;;;;;;0.00;0.00;;;;;15.94;56.55;99136.88;5054654;28;46067;-75
2022/04/07 11:49:20;;;;;;;;;0.00;0.00;;;;;15.78;55.96;99145.56;5053970;28;45989;-75
2022/04/07 11:51:45;;;;;;;;;0.00;0.00;;;;;15.84;55.75;99153.09;5053026;28;45363;-75
2022/04/07 11:54:16;;;;;;;;;2.00;0.00;;;;;15.80;54.54;99176.88;5053784;28;45401;-74
2022/04/07 11:56:42;;;;;;;;;1.00;0.00;;;;;15.95;54.76;99150.25;5051670;28;45394;-77
2022/04/07 11:59:12;;;;;;;;;2.00;0.00;;;;;16.05;52.78;99152.97;5050847;28;45833;-74
2022/04/07 12:01:43;;;;;;;;;1.00;0.00;;;;;16.11;52.67;99136.16;5054661;28;45374;-75
2022/04/07 12:04:11;;;;;;;;;0.00;0.00;;;;;16.15;50.39;99175.44;5054570;28;45431;-74
2022/04/07 12:06:40;;;;;;;;;0.00;0.00;;;;;16.09;50.00;99190.34;5054503;28;45510;-76
2022/04/07 12:09:06;;;;;;;;;0.00;0.00;;;;;16.19;50.15;99174.13;5053848;28;45996;-76
2022/04/07 12:11:34;;;;;;;;;0.00;0.00;;;;;16.30;49.82;99156.91;5052137;28;45766;-75
2022/04/07 12:14:03;;;;;;;;;0.00;0.00;;;;;16.28;49.69;99170.56;5053601;28;45578;-76
2022/04/07 12:16:28;;;;;;;;;1.50;0.00;;;;;16.11;48.37;99172.16;5054059;28;45576;-76
2022/04/07 12:18:55;;;;;;;;;1.00;0.00;;;;;15.96;48.83;99194.34;5053913;28;46248;-76
2022/04/07 12:21:23;;;;;;;;;0.00;0.00;;;;;15.87;48.85;99169.03;5054102;28;45500;-76
2022/04/07 12:23:49;;;;;;;;;0.00;0.00;;;;;15.85;48.58;99189.94;5066545;28;45422;-78
2022/04/07 12:26:15;;;;;;;;;0.00;0.00;;;;;16.13;48.65;99199.91;5063858;28;45343;-76
2022/04/07 12:28:40;;;;;;;;;0.75;0.00;;;;;16.13;48.10;99194.50;5055265;28;46035;-76
2022/04/07 12:31:11;;;;;;;;;1.00;0.00;;;;;16.25;48.98;99197.88;5035206;28;45378;-76
2022/04/07 12:33:44;;;;;;;;;1.00;1.00;;;;;16.22;48.51;99177.41;5067295;28;45511;-75
2022/04/07 12:36:11;;;;;;;;;2.00;1.00;;;;;16.39;48.56;99194.75;5054001;28;45268;-77
2022/04/07 12:38:38;;;;;;;;;2.00;1.00;;;;;16.74;48.11;99180.59;5058962;28;45395;-75
2022/04/07 12:41:15;;;;;;;;;1.50;0.50;;;;;16.81;48.04;99187.13;5073970;28;45456;-76
2022/04/07 12:43:50;;;;;;;;;0.00;0.00;;;;;17.21;46.66;99197.63;5066542;28;45230;-76
2022/04/07 12:46:19;;;;;;;;;0.00;0.00;;;;;17.30;46.04;99204.88;5053939;28;45225;-77
2022/04/07 12:49:06;;;;;;;;;1.00;1.00;;;;;17.80;45.07;99209.88;5053591;28;45435;-76
2022/04/07 12:51:33;;;;;;;;;5.00;1.00;;;;;18.34;43.08;99205.28;5053802;28;45499;-76
2022/04/07 12:54:12;;;;;;;;;1.00;1.00;;;;;18.11;42.62;99202.22;5056707;28;45452;-77
2022/04/07 12:56:40;;;;;;;;;2.00;0.00;;;;;18.21;42.88;99221.09;5057888;28;45534;-76
2022/04/07 12:59:10;;;;;;;;;1.00;0.00;;;;;18.34;42.87;99227.00;5057476;28;45477;-75
2022/04/07 13:01:36;;;;;;;;;1.50;1.00;;;;;18.45;42.73;99224.06;5057368;28;45339;-77
2022/04/07 13:04:04;;;;;;;;;0.00;0.00;;;;;18.73;41.28;99217.50;5039051;28;45457;-75
2022/04/07 13:06:31;;;;;;;;;4.50;0.50;;;;;19.21;39.96;99219.66;5057128;28;45553;-78
2022/04/07 13:08:56;;;;;;;;;1.75;1.00;;;;;19.92;38.48;99216.53;5056982;28;45373;-76
2022/04/07 13:11:31;;;;;;;;;1.50;0.75;;;;;20.16;37.33;99214.88;5057466;28;45490;-77
2022/04/07 13:13:57;;;;;;;;;0.00;0.00;;;;;20.46;36.43;99240.59;5057696;28;45458;-76
2022/04/07 13:16:22;;;;;;;;;0.00;0.00;;;;;20.85;35.83;99214.34;5038618;28;46191;-75
2022/04/07 13:18:48;;;;;;;;;0.00;0.00;;;;;20.57;35.29;99227.50;5056690;28;45946;-76
2022/04/07 13:21:15;;;;;;;;;1.75;0.00;;;;;20.73;35.90;99211.16;5057282;28;45505;-76
2022/04/07 13:23:40;;;;;;;;;1.50;0.00;;;;;21.60;34.31;99223.03;5054159;28;45420;-75
2022/04/07 13:26:06;;;;;;;;;0.75;0.00;;;;;21.90;33.76;99235.81;5063189;28;45582;-76
2022/04/07 13:28:31;;;;;;;;;0.00;0.00;;;;;22.16;33.54;99232.78;5060560;28;45280;-77
2022/04/07 13:30:57;;;;;;;;;0.00;0.00;;;;;22.73;32.33;99226.84;5056533;28;45496;-80
2022/04/07 13:33:23;;;;;;;;;0.00;0.00;;;;;23.09;32.25;99234.38;5070515;28;45314;-80
2022/04/07 13:35:50;;;;;;;;;2.25;0.00;;;;;22.79;31.19;99258.09;5065216;28;45523;-81
2022/04/07 13:38:16;;;;;;;;;2.00;0.00;;;;;21.37;33.51;99238.44;5059136;28;45474;-80
2022/04/07 13:40:42;;;;;;;;;0.75;0.75;;;;;21.15;34.65;99249.03;5057618;28;45315;-80
2022/04/07 13:43:07;;;;;;;;;2.00;0.00;;;;;20.99;35.67;99256.41;5056733;28;45460;-81
2022/04/07 13:45:33;;;;;;;;;1.75;0.00;;;;;20.80;35.74;99259.47;5056838;28;45447;-81
2022/04/07 13:47:58;;;;;;;;;0.50;0.50;;;;;20.72;36.13;99239.41;5056553;28;46128;-81
2022/04/07 13:50:23;;;;;;;;;4.00;0.50;;;;;20.78;35.73;99255.06;5039059;28;45363;-81
2022/04/07 13:52:49;;;;;;;;;0.25;0.25;;;;;21.24;35.72;99271.72;5056730;28;45299;-80
2022/04/07 13:55:14;;;;;;;;;0.00;0.00;;;;;21.74;35.06;99274.09;5056836;28;45537;-81
2022/04/07 13:57:40;;;;;;;;;2.50;1.00;;;;;22.14;34.60;99266.72;5057464;28;46074;-80
2022/04/07 14:00:06;;;;;;;;;2.25;0.00;;;;;22.53;32.61;99300.28;5055587;28;45790;-79
2022/04/07 14:02:31;;;;;;;;;0.00;0.00;;;;;22.89;33.01;99278.66;5056039;28;45459;-82
2022/04/07 14:04:57;;;;;;;;;0.00;0.00;;;;;23.22;31.20;99262.75;5055745;28;45280;-79
2022/04/07 14:07:22;;;;;;;;;0.50;0.50;;;;;23.44;30.91;99262.88;5055652;28;46338;-77
2022/04/07 14:09:48;;;;;;;;;3.50;0.25;;;;;23.63;30.54;99353.50;5056354;28;45221;-75
2022/04/07 14:12:14;;;;;;;;;0.50;0.00;;;;;23.99;29.83;99282.38;5056035;28;45344;-77
2022/04/07 14:14:39;;;;;;;;;2.50;0.00;;;;;23.89;30.32;99279.13;5039193;28;45640;-77
2022/04/07 14:17:05;;;;;;;;;1.50;0.50;;;;;23.85;29.97;99290.63;5058309;28;45319;-77
2022/04/07 14:19:30;;;;;;;;;4.50;1.00;;;;;23.86;29.64;99293.19;5059047;28;45446;-76
2022/04/07 14:21:56;;;;;;;;;2.00;1.00;;;;;23.65;30.32;99293.94;5038936;28;45592;-78
2022/04/07 14:24:21;;;;;;;;;1.00;0.00;;;;;23.20;30.24;99292.22;5057351;28;45358;-74
2022/04/07 14:26:46;;;;;;;;;1.75;0.00;;;;;22.68;30.12;99294.88;5057706;28;45695;-75
2022/04/07 14:29:12;;;;;;;;;0.00;0.00;;;;;22.39;30.64;99218.25;5057103;28;45469;-74
2022/04/07 14:31:37;;;;;;;;;3.50;1.00;;;;;22.75;29.44;99293.13;5062139;28;45704;-73
2022/04/07 14:34:03;;;;;;;;;0.00;0.00;;;;;22.82;29.39;99309.63;5066720;28;45520;-75
2022/04/07 14:36:29;;;;;;;;;0.75;0.75;;;;;22.66;29.90;99266.88;5054989;28;46121;-75
2022/04/07 14:38:54;;;;;;;;;2.00;1.00;;;;;22.38;29.61;99298.47;5055252;28;45340;-75
2022/04/07 14:41:19;;;;;;;;;0.00;0.00;;;;;22.11;30.14;99306.19;5055193;28;45260;-75
2022/04/07 14:43:45;;;;;;;;;2.00;0.75;;;;;21.38;31.11;99330.97;5055818;28;45536;-74
2022/04/07 14:46:11;;;;;;;;;4.75;0.75;;;;;21.04;32.26;99312.06;5055217;28;46008;-74
2022/04/07 14:48:36;;;;;;;;;0.50;0.00;;;;;20.02;33.81;99328.78;5055806;28;45309;-76
2022/04/07 14:51:02;;;;;;;;;1.25;0.00;;;;;20.00;33.94;99324.50;5055020;28;45340;-75
2022/04/07 14:53:28;;;;;;;;;5.50;1.00;;;;;20.02;34.12;99336.06;5055744;28;45501;-76
2022/04/07 14:55:55;;;;;;;;;1.00;1.00;;;;;19.80;34.15;99344.84;5054624;28;46264;-75
2022/04/07 14:58:20;;;;;;;;;3.50;1.00;;;;;20.11;33.79;99343.25;5055013;28;45379;-75
2022/04/07 15:00:46;;;;;;;;;2.50;1.00;;;;;19.90;33.87;99311.06;5055608;28;45356;-75
2022/04/07 15:03:12;;;;;;;;;2.25;0.50;;;;;20.54;33.38;99353.09;5055382;28;45975;-75
2022/04/07 15:05:37;;;;;;;;;3.50;0.00;;;;;20.89;33.47;99335.59;5056163;28;46104;-76
2022/04/07 15:08:03;;;;;;;;;1.00;1.00;;;;;21.13;31.85;99335.56;5056795;28;45375;-74
2022/04/07 15:10:29;;;;;;;;;0.25;0.25;;;;;20.86;30.74;99326.88;5058407;28;45236;-74
2022/04/07 15:12:54;;;;;;;;;3.75;0.75;;;;;20.23;31.40;99341.94;5058480;28;45648;-77
2022/04/07 15:15:19;;;;;;;;;2.00;1.00;;;;;19.95;32.62;99354.06;5058964;28;45411;-75
2022/04/07 15:17:48;;;;;;;;;2.50;1.00;;;;;20.05;32.08;99364.84;5058940;28;45398;-75
2022/04/07 15:20:13;;;;;;;;;0.00;0.00;;;;;20.21;32.29;99359.44;5059801;28;45466;-75
2022/04/07 15:22:39;;;;;;;;;2.25;0.00;;;;;20.54;31.17;99365.84;5057864;28;45295;-75
2022/04/07 15:25:06;;;;;;;;;2.00;0.75;;;;;20.49;30.75;99358.19;5057577;28;45966;-75
2022/04/07 15:27:32;;;;;;;;;0.00;0.00;;;;;20.25;30.01;99369.81;5048821;28;45442;-76
2022/04/07 15:29:57;;;;;;;;;3.00;1.00;;;;;20.56;30.13;99378.28;5055607;28;45563;-77
2022/04/07 15:32:23;;;;;;;;;2.25;1.25;;;;;20.59;30.23;99377.06;5067380;28;45517;-77
2022/04/07 15:34:50;;;;;;;;;0.75;0.50;;;;;20.56;29.62;99402.78;5059317;28;45505;-74
2022/04/07 15:37:15;;;;;;;;;1.00;1.00;;;;;20.33;29.78;99369.84;5054499;28;45348;-76
2022/04/07 15:39:41;;;;;;;;;2.00;1.00;;;;;20.02;30.00;99380.47;5054803;28;45529;-76
2022/04/07 15:42:06;;;;;;;;;1.00;1.00;;;;;19.76;30.70;99395.13;5037426;28;47286;-76
2022/04/07 15:44:32;;;;;;;;;1.00;1.00;;;;;19.33;31.03;99420.44;5068251;28;46012;-75
2022/04/07 15:46:57;;;;;;;;;1.50;0.00;;;;;19.04;32.19;99391.72;5055480;28;45238;-74
2022/04/07 15:49:22;;;;;;;;;0.25;0.25;;;;;19.01;32.04;99418.31;5056759;28;45627;-74
2022/04/07 15:51:48;;;;;;;;;0.00;0.00;;;;;18.54;32.11;99415.81;5058386;28;45470;-76
2022/04/07 15:54:17;;;;;;;;;4.00;1.00;;;;;18.13;33.15;99415.31;5054529;28;45383;-76
2022/04/07 15:56:42;;;;;;;;;2.00;0.00;;;;;17.67;33.69;99399.13;5054261;28;45421;-80
2022/04/07 15:59:08;;;;;;;;;0.25;0.00;;;;;17.78;34.02;99445.00;5054627;28;45361;-77
2022/04/07 16:01:35;;;;;;;;;2.00;0.00;;;;;17.68;34.54;99428.81;5054527;28;45536;-79
2022/04/07 16:04:00;;;;;;;;;0.50;0.50;;;;;17.57;35.46;99452.47;5054152;28;46234;-75
2022/04/07 16:06:26;;;;;;;;;1.00;1.00;;;;;17.50;35.81;99438.66;5054321;28;45295;-78